Time;durP1;ratioP1;P1;durP2;ratioP2;P2;SDS_P1;SDS_P2;PMS_P1;PMS_P2;Temp;Humidity;BMP_temperature;BMP_pressure;BME280_temperature;BME280_humidity;BME280_pressure;Samples;Min_cycle;Max_cycle;Signal;HPM_P1;HPM_P2
2022/04/21 00:02:25;;;;;;;7.80;4.00;;;11.90;65.80;;;;;;5050452;28;20037;-62
2022/04/21 00:04:51;;;;;;;5.85;3.50;;;11.90;65.80;;;;;;5050454;28;20098;-62
2022/04/21 00:07:17;;;;;;;15.38;3.80;;;11.90;65.70;;;;;;5050908;28;20053;-62
2022/04/21 00:09:42;;;;;;;7.60;3.83;;;11.90;65.60;;;;;;5050058;28;20078;-62
2022/04/21 00:12:09;;;;;;;5.25;3.38;;;11.90;65.60;;;;;;5049736;28;20040;-63
2022/04/21 00:14:34;;;;;;;7.38;3.65;;;11.80;65.50;;;;;;5050117;28;20478;-64
2022/04/21 00:17:00;;;;;;;7.60;4.03;;;11.80;65.90;;;;;;5049989;28;20025;-62
2022/04/21 00:19:26;;;;;;;6.75;3.28;;;11.80;65.70;;;;;;5050375;28;20583;-62
2022/04/21 00:24:36;;;;;;;9.00;4.20;;;11.80;65.70;;;;;;5050195;28;20086;-62
2022/04/21 00:27:02;;;;;;;12.25;4.10;;;11.80;65.40;;;;;;5051317;28;20098;-62
2022/04/21 00:29:28;;;;;;;7.30;3.60;;;11.80;65.60;;;;;;5052112;28;20022;-62
2022/04/21 00:31:54;;;;;;;6.53;3.85;;;11.70;65.40;;;;;;5052264;28;20068;-62
2022/04/21 00:34:19;;;;;;;7.18;3.78;;;11.70;65.40;;;;;;5052686;28;20028;-62
2022/04/21 00:36:46;;;;;;;7.95;3.80;;;11.70;65.50;;;;;;5052304;28;20033;-62
2022/04/21 00:39:11;;;;;;;7.68;4.00;;;11.70;65.00;;;;;;5052384;28;20029;-62
2022/04/21 00:41:37;;;;;;;4.90;3.75;;;11.60;65.30;;;;;;5052352;28;20083;-62
2022/04/21 00:44:04;;;;;;;9.10;4.78;;;11.60;64.90;;;;;;5052303;28;20051;-65
2022/04/21 00:46:30;;;;;;;5.32;3.55;;;11.60;64.80;;;;;;5052163;28;20451;-62
2022/04/21 00:48:56;;;;;;;13.88;4.20;;;11.50;65.00;;;;;;5051958;28;20017;-62
2022/04/21 00:51:24;;;;;;;9.70;4.38;;;11.50;65.10;;;;;;5052112;28;20047;-62
2022/04/21 00:53:50;;;;;;;6.80;3.70;;;11.50;65.10;;;;;;5052589;28;20049;-62
2022/04/21 00:56:15;;;;;;;6.68;4.10;;;11.50;65.50;;;;;;5052116;28;20110;-62
2022/04/21 00:58:43;;;;;;;7.13;4.22;;;11.40;65.60;;;;;;5050100;28;20104;-62
2022/04/21 01:02:46;;;;;;;12.32;4.10;;;11.40;65.50;;;;;;5049300;28;20102;-62
2022/04/21 01:03:56;;;;;;;13.20;4.05;;;11.40;65.10;;;;;;5049454;28;20397;-62
2022/04/21 01:06:25;;;;;;;8.13;3.83;;;11.30;64.50;;;;;;5051628;28;20016;-62
2022/04/21 01:08:50;;;;;;;6.65;4.30;;;11.30;64.50;;;;;;5051772;28;20029;-62
2022/04/21 01:11:17;;;;;;;6.28;4.03;;;11.30;64.60;;;;;;5051703;28;20040;-63
2022/04/21 01:13:43;;;;;;;9.82;4.10;;;11.20;65.00;;;;;;5051743;28;20025;-62
2022/04/21 01:16:08;;;;;;;8.85;3.95;;;11.20;65.20;;;;;;5052167;28;20389;-62
2022/04/21 01:18:34;;;;;;;7.10;3.67;;;11.10;65.10;;;;;;5051641;28;20096;-62
2022/04/21 01:21:00;;;;;;;6.93;4.35;;;11.10;65.20;;;;;;5051120;28;20021;-66
2022/04/21 01:23:26;;;;;;;6.25;4.10;;;11.00;65.30;;;;;;5051762;28;20025;-62
2022/04/21 01:25:52;;;;;;;6.35;3.90;;;11.00;65.70;;;;;;5051621;28;20370;-62
2022/04/21 01:28:19;;;;;;;7.75;4.82;;;11.00;65.50;;;;;;5051487;28;20429;-62
2022/04/21 01:30:44;;;;;;;16.25;4.05;;;10.90;65.30;;;;;;5051474;28;20057;-67
2022/04/21 01:33:10;;;;;;;9.80;4.20;;;10.90;65.40;;;;;;5051492;28;20052;-62
2022/04/21 01:35:39;;;;;;;7.93;3.78;;;10.80;66.00;;;;;;5051452;28;20353;-62
2022/04/21 01:43:33;;;;;;;6.00;4.15;;;10.90;66.20;;;;;;5051796;28;20535;-62
2022/04/21 01:45:59;;;;;;;8.05;3.70;;;10.80;65.80;;;;;;5051609;28;20053;-62
2022/04/21 01:48:25;;;;;;;9.23;3.80;;;10.80;66.20;;;;;;5051616;28;20061;-62
2022/04/21 01:50:51;;;;;;;8.13;3.80;;;10.70;66.10;;;;;;5051130;28;20091;-62
2022/04/21 01:53:17;;;;;;;8.10;4.18;;;10.80;65.70;;;;;;5051413;28;20437;-62
2022/04/21 01:55:42;;;;;;;10.15;4.50;;;10.80;65.60;;;;;;5051616;28;20458;-61
2022/04/21 01:58:08;;;;;;;5.65;3.95;;;10.70;65.40;;;;;;5051431;28;20021;-62
2022/04/21 02:00:34;;;;;;;7.78;3.83;;;10.60;65.20;;;;;;5053928;28;20052;-64
2022/04/21 02:03:00;;;;;;;9.70;4.20;;;10.60;65.30;;;;;;5055237;28;20032;-65
2022/04/21 02:05:26;;;;;;;9.63;4.30;;;10.60;65.50;;;;;;5056082;28;20033;-63
2022/04/21 02:07:52;;;;;;;8.63;3.83;;;10.60;65.60;;;;;;5055284;28;20100;-62
2022/04/21 02:10:19;;;;;;;6.78;3.85;;;10.60;66.10;;;;;;5054815;28;20070;-62
2022/04/21 02:12:45;;;;;;;7.22;3.40;;;10.50;66.10;;;;;;5054796;28;20040;-61
2022/04/21 02:15:11;;;;;;;4.88;3.17;;;10.50;66.20;;;;;;5054879;28;20115;-62
2022/04/21 02:17:39;;;;;;;7.80;3.20;;;10.50;66.50;;;;;;5053477;28;20029;-61
2022/04/21 02:20:07;;;;;;;5.53;3.10;;;10.50;67.20;;;;;;5054661;28;20032;-64
2022/04/21 02:22:35;;;;;;;7.90;3.08;;;10.50;67.10;;;;;;5054474;28;20040;-62
2022/04/21 02:25:07;;;;;;;4.75;2.83;;;10.40;66.60;;;;;;5054952;28;20394;-62
2022/04/21 02:27:34;;;;;;;7.78;2.67;;;10.40;66.50;;;;;;5054426;28;20033;-61
2022/04/21 02:30:00;;;;;;;5.73;2.57;;;10.40;66.40;;;;;;5054511;28;20123;-62
2022/04/21 02:32:26;;;;;;;3.23;2.10;;;10.40;66.30;;;;;;5054115;28;20040;-62
2022/04/21 02:34:55;;;;;;;9.27;2.07;;;10.40;66.30;;;;;;5054027;28;20405;-63
2022/04/21 02:37:22;;;;;;;3.67;1.87;;;10.40;66.60;;;;;;5054765;28;20107;-62
2022/04/21 02:39:49;;;;;;;4.57;2.03;;;10.40;65.60;;;;;;5054059;28;20500;-63
2022/04/21 02:42:15;;;;;;;9.37;3.00;;;10.40;65.20;;;;;;5052912;28;20064;-62
2022/04/21 02:44:41;;;;;;;6.63;3.60;;;10.40;65.10;;;;;;5052100;28;20571;-62
2022/04/21 02:47:07;;;;;;;7.43;3.50;;;10.40;65.30;;;;;;5052482;28;20087;-62
2022/04/21 02:49:35;;;;;;;8.37;3.60;;;10.40;65.20;;;;;;5052559;28;20551;-62
2022/04/21 02:52:05;;;;;;;6.47;4.07;;;10.30;65.30;;;;;;5051916;28;20505;-62
2022/04/21 02:57:21;;;;;;;9.27;3.47;;;10.20;65.90;;;;;;5052851;28;20036;-61
2022/04/21 02:59:51;;;;;;;16.20;3.83;;;10.20;66.10;;;;;;5051922;28;20021;-62
2022/04/21 03:02:18;;;;;;;17.33;3.80;;;10.20;66.20;;;;;;5051662;28;20052;-62
2022/04/21 03:04:44;;;;;;;8.50;4.05;;;10.20;66.30;;;;;;5051297;28;20025;-62
2022/04/21 03:07:10;;;;;;;11.60;3.90;;;10.10;66.00;;;;;;5051338;28;20040;-62
2022/04/21 03:09:36;;;;;;;7.43;3.90;;;10.10;66.20;;;;;;5051476;28;20017;-62
2022/04/21 03:12:03;;;;;;;6.07;3.33;;;10.10;66.10;;;;;;5051096;28;20037;-61
2022/04/21 03:14:29;;;;;;;8.23;4.17;;;10.00;66.60;;;;;;5051304;28;20103;-62
2022/04/21 03:16:55;;;;;;;8.47;3.47;;;10.00;66.40;;;;;;5051459;28;20523;-63
2022/04/21 03:19:20;;;;;;;10.90;3.63;;;10.00;66.40;;;;;;5051636;28;20028;-62
2022/04/21 03:24:30;;;;;;;9.53;3.90;;;10.00;66.40;;;;;;5051506;28;20028;-67
2022/04/21 03:26:56;;;;;;;6.37;3.40;;;9.90;66.40;;;;;;5051372;28;20551;-62
2022/04/21 03:29:22;;;;;;;9.07;3.50;;;9.90;66.90;;;;;;5050994;28;20021;-61
2022/04/21 03:31:48;;;;;;;9.20;3.53;;;9.90;67.00;;;;;;5051310;28;20052;-63
2022/04/21 03:34:16;;;;;;;11.37;3.20;;;9.90;67.40;;;;;;5050961;28;20064;-62
2022/04/21 03:36:49;;;;;;;12.23;3.47;;;9.90;67.50;;;;;;5050500;28;20025;-62
2022/04/21 03:39:22;;;;;;;5.80;3.50;;;9.90;67.50;;;;;;5051088;28;20072;-62
2022/04/21 03:41:54;;;;;;;7.15;3.75;;;9.90;67.10;;;;;;5051669;28;20024;-67
2022/04/21 03:44:20;;;;;;;;;;;9.80;67.00;;;;;;5052588;28;20029;-62
2022/04/21 03:46:46;;;;;;;6.67;3.80;;;9.80;67.30;;;;;;5053087;28;19912;-62
2022/04/21 03:49:12;;;;;;;19.17;3.73;;;9.80;67.30;;;;;;5053200;28;20044;-62
2022/04/21 03:51:38;;;;;;;22.73;3.80;;;9.80;67.20;;;;;;5052651;28;20466;-61
2022/04/21 03:54:04;;;;;;;11.83;3.87;;;9.80;67.10;;;;;;5053027;28;20029;-61
2022/04/21 03:56:30;;;;;;;6.53;3.37;;;9.80;66.90;;;;;;5052895;28;20078;-62
2022/04/21 03:58:57;;;;;;;13.07;3.90;;;9.70;67.00;;;;;;5053010;28;20032;-61
2022/04/21 04:01:22;;;;;;;5.87;3.23;;;9.70;67.00;;;;;;5052889;28;20401;-61
2022/04/21 04:03:48;;;;;;;7.50;3.00;;;9.70;67.80;;;;;;5053162;28;20124;-61
2022/04/21 04:11:43;;;;;;;7.50;2.70;;;9.70;67.50;;;;;;5053042;28;20044;-67
2022/04/21 04:14:09;;;;;;;5.73;2.47;;;9.70;67.20;;;;;;5052679;28;20021;-62
2022/04/21 04:16:35;;;;;;;11.20;3.00;;;9.70;66.70;;;;;;5052913;28;20029;-65
2022/04/21 04:19:07;;;;;;;11.27;3.57;;;9.70;67.50;;;;;;5052619;28;20385;-62
2022/04/21 04:21:36;;;;;;;5.82;3.00;;;9.60;67.70;;;;;;5052538;28;20025;-62
2022/04/21 04:24:03;;;;;;;10.10;3.87;;;9.60;67.60;;;;;;5052381;28;20067;-62
2022/04/21 04:26:30;;;;;;;9.63;3.17;;;9.60;67.60;;;;;;5052434;28;20029;-62
2022/04/21 04:28:56;;;;;;;6.40;3.40;;;9.60;67.50;;;;;;5052634;28;20029;-61
2022/04/21 04:31:21;;;;;;;10.10;3.17;;;9.60;67.40;;;;;;5052466;28;20367;-67
2022/04/21 04:33:47;;;;;;;11.27;3.37;;;9.60;67.30;;;;;;5052701;28;20055;-61
2022/04/21 04:36:16;;;;;;;10.50;3.97;;;9.60;67.40;;;;;;5052417;28;20481;-61
2022/04/21 04:38:43;;;;;;;9.27;3.60;;;9.60;67.30;;;;;;5052343;28;20021;-62
2022/04/21 04:43:53;;;;;;;6.80;3.33;;;9.50;67.80;;;;;;5052374;28;20068;-61
2022/04/21 04:46:38;;;;;;;7.30;3.40;;;9.50;68.10;;;;;;5052289;28;20056;-61
2022/04/21 04:49:09;;;;;;;9.37;3.50;;;9.40;68.30;;;;;;5052118;28;20025;-62
2022/04/21 04:51:40;;;;;;;6.80;3.53;;;9.40;68.80;;;;;;5052079;28;20130;-67
2022/04/21 04:54:06;;;;;;;13.53;3.07;;;9.50;69.20;;;;;;5052185;28;20095;-62
2022/04/21 04:56:33;;;;;;;5.07;3.03;;;9.40;68.90;;;;;;5052135;28;20033;-62
2022/04/21 04:59:00;;;;;;;11.67;3.70;;;9.50;69.00;;;;;;5052143;28;20032;-61
2022/04/21 05:01:30;;;;;;;4.00;2.50;;;9.40;69.00;;;;;;5051600;28;20059;-68
2022/04/21 05:04:10;;;;;;;7.23;2.97;;;9.40;68.80;;;;;;5052057;28;20029;-67
2022/04/21 05:06:39;;;;;;;8.93;2.57;;;9.50;68.80;;;;;;5052150;28;20515;-61
2022/04/21 05:09:09;;;;;;;6.43;2.40;;;9.50;68.90;;;;;;5052052;28;20028;-62
2022/04/21 05:11:35;;;;;;;5.37;2.83;;;9.50;68.90;;;;;;5051680;28;20110;-61
2022/04/21 05:14:02;;;;;;;8.53;2.90;;;9.50;68.90;;;;;;5052456;28;20021;-60
2022/04/21 05:16:28;;;;;;;7.83;2.70;;;9.60;68.70;;;;;;5052577;28;20029;-62
2022/04/21 05:18:55;;;;;;;7.20;2.87;;;9.60;68.50;;;;;;5052719;28;20100;-62
2022/04/21 05:21:21;;;;;;;9.30;3.80;;;9.60;68.20;;;;;;5051512;28;20025;-62
2022/04/21 05:23:47;;;;;;;13.60;3.70;;;9.70;68.20;;;;;;5051036;28;20083;-62
2022/04/21 05:26:15;;;;;;;16.97;4.50;;;9.70;68.10;;;;;;5050942;28;20115;-66
2022/04/21 05:28:42;;;;;;;12.73;4.43;;;9.70;67.90;;;;;;5052310;28;20021;-62
2022/04/21 05:31:09;;;;;;;18.13;5.67;;;9.70;68.20;;;;;;5052134;28;20037;-63
2022/04/21 05:33:35;;;;;;;19.13;7.00;;;9.70;68.30;;;;;;5051195;28;20495;-62
2022/04/21 05:36:01;;;;;;;17.67;7.30;;;9.70;68.20;;;;;;5054225;28;20059;-62
2022/04/21 05:38:28;;;;;;;23.77;8.90;;;9.60;68.20;;;;;;5055933;28;20021;-65
2022/04/21 05:40:54;;;;;;;24.83;9.47;;;9.60;68.30;;;;;;5056221;28;20175;-67
2022/04/21 05:43:21;;;;;;;27.43;8.90;;;9.60;68.60;;;;;;5029961;28;20041;-64
2022/04/21 05:45:48;;;;;;;36.60;8.87;;;9.60;69.00;;;;;;5056108;28;20082;-69
2022/04/21 05:48:15;;;;;;;25.47;7.90;;;9.60;68.80;;;;;;5055363;28;20409;-62
2022/04/21 05:50:48;;;;;;;46.10;9.97;;;9.60;68.60;;;;;;5055203;28;20135;-62
2022/04/21 05:53:22;;;;;;;85.97;13.10;;;9.60;69.10;;;;;;5054908;28;20033;-62
2022/04/21 05:55:49;;;;;;;61.83;10.53;;;9.70;69.10;;;;;;5056022;28;20029;-69
2022/04/21 05:58:15;;;;;;;51.27;9.23;;;9.70;69.20;;;;;;5056210;28;20021;-65
2022/04/21 06:00:41;;;;;;;41.50;8.97;;;9.80;69.10;;;;;;5055185;28;20139;-62
2022/04/21 06:03:07;;;;;;;35.77;8.33;;;9.80;69.10;;;;;;5054491;28;20096;-62
2022/04/21 06:05:33;;;;;;;25.60;7.20;;;9.80;69.20;;;;;;5054760;28;20024;-62
2022/04/21 06:07:59;;;;;;;53.87;7.50;;;9.80;69.70;;;;;;5055244;28;20018;-62
2022/04/21 06:10:24;;;;;;;32.27;7.57;;;9.80;69.70;;;;;;5055923;28;20029;-62
2022/04/21 06:12:50;;;;;;;21.27;5.70;;;9.70;69.50;;;;;;5055763;28;20039;-62
2022/04/21 06:15:16;;;;;;;25.03;5.73;;;9.80;69.90;;;;;;5055435;28;20021;-62
2022/04/21 06:17:42;;;;;;;24.97;5.63;;;9.80;69.90;;;;;;5055293;28;20024;-62
2022/04/21 06:20:09;;;;;;;16.50;4.70;;;9.80;70.60;;;;;;5055702;28;20023;-62
2022/04/21 06:22:35;;;;;;;10.70;4.07;;;9.80;70.50;;;;;;5055745;28;20086;-62
2022/04/21 06:25:01;;;;;;;11.83;4.20;;;9.90;70.60;;;;;;5055647;28;20025;-69
2022/04/21 06:27:27;;;;;;;10.77;3.93;;;9.90;70.60;;;;;;5055540;28;20025;-62
2022/04/21 06:29:52;;;;;;;17.47;3.87;;;9.90;70.10;;;;;;5055274;28;20025;-62
2022/04/21 06:32:18;;;;;;;18.80;5.33;;;9.90;70.00;;;;;;5055653;28;20033;-62
2022/04/21 06:34:44;;;;;;;16.37;4.53;;;9.90;70.40;;;;;;5055861;28;20492;-62
2022/04/21 06:37:10;;;;;;;12.83;3.97;;;10.00;70.60;;;;;;5055703;28;20033;-62
2022/04/21 06:39:36;;;;;;;8.87;3.43;;;10.00;70.70;;;;;;5055674;28;20087;-62
2022/04/21 06:42:01;;;;;;;11.03;3.53;;;10.10;70.80;;;;;;5054973;28;20112;-62
2022/04/21 06:49:56;;;;;;;10.80;4.17;;;10.20;70.40;;;;;;5055394;28;20040;-62
2022/04/21 06:52:21;;;;;;;10.00;4.33;;;10.20;70.60;;;;;;5055325;28;20037;-62
2022/04/21 06:54:47;;;;;;;7.30;4.30;;;10.20;70.90;;;;;;5055449;28;20036;-62
2022/04/21 06:57:13;;;;;;;20.50;4.63;;;10.30;71.40;;;;;;5055375;28;20142;-62
2022/04/21 06:59:39;;;;;;;8.45;4.32;;;10.30;71.60;;;;;;5055256;28;20037;-62
2022/04/21 07:02:05;;;;;;;19.58;5.25;;;10.40;71.80;;;;;;5054650;28;20136;-62
2022/04/21 07:04:31;;;;;;;12.18;4.90;;;10.50;71.80;;;;;;5055160;28;20021;-63
2022/04/21 07:06:57;;;;;;;9.48;4.13;;;10.60;71.80;;;;;;5054957;28;20029;-62
2022/04/21 07:09:22;;;;;;;8.23;3.55;;;10.70;71.10;;;;;;5055074;28;20036;-63
2022/04/21 07:11:48;;;;;;;11.35;4.00;;;10.80;70.00;;;;;;5054589;28;20041;-62
2022/04/21 07:14:14;;;;;;;5.90;3.28;;;10.90;68.90;;;;;;5055131;28;20470;-62
2022/04/21 07:16:40;;;;;;;8.52;3.38;;;11.10;68.10;;;;;;5055088;28;20416;-62
2022/04/21 07:19:06;;;;;;;9.48;3.10;;;11.10;67.70;;;;;;5054989;28;20021;-62
2022/04/21 07:21:31;;;;;;;9.57;2.95;;;11.20;67.60;;;;;;5054914;28;20033;-63
2022/04/21 07:23:57;;;;;;;7.30;2.67;;;11.30;66.80;;;;;;5054178;28;20021;-62
2022/04/21 07:26:23;;;;;;;6.70;2.60;;;11.40;66.40;;;;;;5054146;28;20371;-62
2022/04/21 07:28:48;;;;;;;6.82;3.10;;;11.40;65.70;;;;;;5054057;28;20021;-62
2022/04/21 07:31:14;;;;;;;6.65;3.90;;;11.50;65.10;;;;;;5054432;28;20040;-62
2022/04/21 07:33:40;;;;;;;15.85;4.53;;;11.60;65.40;;;;;;5054637;28;20032;-62
2022/04/21 07:36:06;;;;;;;14.95;4.75;;;11.60;66.60;;;;;;5054671;28;20036;-62
2022/04/21 07:38:34;;;;;;;10.70;4.70;;;11.60;66.90;;;;;;5054681;28;20444;-63
2022/04/21 07:41:00;;;;;;;13.43;5.15;;;11.70;67.00;;;;;;5054472;28;20044;-62
2022/04/21 07:43:26;;;;;;;8.73;4.18;;;11.60;67.40;;;;;;5054496;28;20021;-62
2022/04/21 07:45:51;;;;;;;9.27;4.05;;;11.60;68.10;;;;;;5054555;28;20079;-62
2022/04/21 07:48:17;;;;;;;15.30;4.35;;;11.70;67.50;;;;;;5054661;28;20029;-62
2022/04/21 07:50:43;;;;;;;13.25;4.50;;;11.70;67.10;;;;;;5054698;28;20032;-62
2022/04/21 07:53:14;;;;;;;13.23;3.90;;;11.70;67.30;;;;;;5054178;28;20110;-62
2022/04/21 07:55:45;;;;;;;8.57;3.53;;;11.70;67.60;;;;;;5054425;28;20458;-62
2022/04/21 07:58:11;;;;;;;9.50;3.85;;;11.70;67.30;;;;;;5054160;28;20067;-62
2022/04/21 08:00:38;;;;;;;8.13;3.92;;;11.70;66.90;;;;;;5050663;28;20053;-62
2022/04/21 08:03:05;;;;;;;8.10;3.47;;;11.80;66.40;;;;;;5051340;28;20017;-62
2022/04/21 08:05:31;;;;;;;8.32;3.58;;;11.80;66.70;;;;;;5053561;28;20029;-62
2022/04/21 08:07:58;;;;;;;9.70;3.88;;;11.80;66.60;;;;;;5053760;28;20078;-62
2022/04/21 08:10:27;;;;;;;12.63;4.03;;;11.90;66.40;;;;;;5053937;28;20025;-62
2022/04/21 08:12:54;;;;;;;9.98;3.53;;;11.90;66.00;;;;;;5053877;28;20095;-61
2022/04/21 08:15:24;;;;;;;15.68;3.85;;;11.90;66.20;;;;;;5053714;28;20035;-62
2022/04/21 08:17:51;;;;;;;23.25;4.88;;;11.90;66.20;;;;;;5053800;28;20469;-62
2022/04/21 08:20:17;;;;;;;10.52;4.22;;;11.90;66.20;;;;;;5053964;28;20036;-68
2022/04/21 08:22:44;;;;;;;13.95;4.20;;;12.00;66.50;;;;;;5053784;28;20033;-63
2022/04/21 08:33:22;;;;;;;29.13;4.82;;;12.10;65.20;;;;;;5053741;28;20072;-62
2022/04/21 08:35:49;;;;;;;12.35;4.20;;;12.10;65.40;;;;;;5053442;28;20444;-62
2022/04/21 08:38:16;;;;;;;17.05;4.60;;;12.20;65.40;;;;;;5053078;28;20370;-63
2022/04/21 08:40:53;;;;;;;13.57;3.78;;;12.20;65.70;;;;;;5052638;28;20472;-63
2022/04/21 08:43:19;;;;;;;18.02;4.13;;;12.20;65.00;;;;;;5053312;28;20028;-62
2022/04/21 08:45:47;;;;;;;20.58;3.30;;;12.30;64.70;;;;;;5053256;28;20037;-62
2022/04/21 08:48:14;;;;;;;12.75;3.65;;;12.30;64.30;;;;;;5053069;28;20048;-62
2022/04/21 08:50:41;;;;;;;22.10;3.50;;;12.40;64.70;;;;;;5053378;28;20029;-62
2022/04/21 08:53:09;;;;;;;10.18;3.10;;;12.40;64.20;;;;;;5053268;28;20033;-63
2022/04/21 08:55:35;;;;;;;9.30;3.08;;;12.40;64.40;;;;;;5053679;28;20017;-63
2022/04/21 08:58:02;;;;;;;8.32;3.55;;;12.50;64.20;;;;;;5052046;28;20025;-63
2022/04/21 09:00:31;;;;;;;12.75;3.35;;;12.50;63.90;;;;;;5051936;28;20037;-63
2022/04/21 09:02:57;;;;;;;6.15;2.92;;;12.50;63.60;;;;;;5051960;28;20025;-62
2022/04/21 09:05:23;;;;;;;6.95;2.90;;;12.60;63.40;;;;;;5052129;28;20033;-63
2022/04/21 09:07:50;;;;;;;6.15;2.90;;;12.60;62.80;;;;;;5051674;28;20025;-63
2022/04/21 09:10:17;;;;;;;6.32;2.90;;;12.60;62.60;;;;;;5052011;28;20021;-63
2022/04/21 09:12:45;;;;;;;9.73;2.53;;;12.60;62.60;;;;;;5052551;28;20033;-63
2022/04/21 09:15:24;;;;;;;10.80;3.30;;;12.60;62.60;;;;;;5052827;28;20486;-62
2022/04/21 09:17:56;;;;;;;4.38;2.47;;;12.60;62.60;;;;;;5052873;28;20029;-62
2022/04/21 09:20:29;;;;;;;3.27;2.40;;;12.70;62.50;;;;;;5052848;28;20039;-62
2022/04/21 09:22:56;;;;;;;5.20;2.30;;;12.70;61.60;;;;;;5053115;28;20826;-62
2022/04/21 09:25:28;;;;;;;6.35;2.47;;;12.70;61.60;;;;;;5049891;28;20021;-62
2022/04/21 09:27:56;;;;;;;3.85;2.55;;;12.70;61.70;;;;;;5050054;28;20405;-63
2022/04/21 09:30:22;;;;;;;6.43;2.40;;;12.80;61.70;;;;;;5052291;28;20029;-62
2022/04/21 09:33:00;;;;;;;5.45;2.10;;;12.80;61.50;;;;;;5052905;28;20095;-62
2022/04/21 09:35:28;;;;;;;8.23;2.50;;;12.90;61.20;;;;;;5052672;28;20049;-63
2022/04/21 09:37:56;;;;;;;6.00;2.33;;;12.90;60.90;;;;;;5052850;28;20487;-62
2022/04/21 09:40:27;;;;;;;7.30;2.60;;;12.90;60.90;;;;;;5052718;28;20021;-63
2022/04/21 09:42:58;;;;;;;4.72;2.10;;;12.90;60.90;;;;;;5052396;28;20017;-63
2022/04/21 09:48:23;;;;;;;4.50;1.67;;;13.00;59.60;;;;;;5052018;28;20040;-62
2022/04/21 09:50:51;;;;;;;6.07;1.67;;;13.20;59.20;;;;;;5052352;28;20028;-63
2022/04/21 09:53:23;;;;;;;5.28;1.60;;;13.20;58.20;;;;;;5052165;28;20025;-62
2022/04/21 09:55:59;;;;;;;2.92;1.60;;;13.20;58.10;;;;;;5050301;28;20070;-64
2022/04/21 09:58:24;;;;;;;2.50;1.60;;;13.30;58.00;;;;;;5051601;28;20063;-68
2022/04/21 10:00:50;;;;;;;2.80;1.50;;;13.30;56.70;;;;;;5051294;28;20678;-63
2022/04/21 10:03:16;;;;;;;6.45;1.55;;;13.40;56.20;;;;;;5051734;28;20485;-62
2022/04/21 10:05:41;;;;;;;2.50;1.60;;;13.40;55.40;;;;;;5051542;28;20378;-62
2022/04/21 10:08:09;;;;;;;4.68;1.50;;;13.40;55.00;;;;;;5052013;28;20102;-66
2022/04/21 10:10:36;;;;;;;9.35;1.48;;;13.50;55.50;;;;;;5051410;28;20029;-62
2022/04/21 10:13:04;;;;;;;5.72;1.83;;;13.50;54.90;;;;;;5052045;28;20029;-67
2022/04/21 10:15:30;;;;;;;5.65;1.70;;;13.50;55.20;;;;;;5051687;28;20471;-62
2022/04/21 10:17:56;;;;;;;4.75;2.15;;;13.50;54.40;;;;;;5051563;28;20036;-63
2022/04/21 10:20:23;;;;;;;3.33;1.50;;;13.50;54.40;;;;;;5053007;28;20513;-62
2022/04/21 10:22:51;;;;;;;2.83;1.50;;;13.60;54.40;;;;;;5055793;28;20052;-62
2022/04/21 10:25:18;;;;;;;2.53;1.30;;;13.60;53.10;;;;;;5055973;28;20104;-62
2022/04/21 10:27:49;;;;;;;4.32;1.67;;;13.60;52.20;;;;;;5055571;28;20086;-62
2022/04/21 10:30:31;;;;;;;2.88;1.30;;;13.60;50.60;;;;;;5055852;28;20031;-62
2022/04/21 10:33:07;;;;;;;3.95;1.60;;;13.60;50.20;;;;;;5055694;28;20040;-63
2022/04/21 10:35:34;;;;;;;2.35;1.13;;;13.60;50.10;;;;;;5055780;28;20075;-62
2022/04/21 10:38:14;;;;;;;2.40;1.50;;;13.60;48.90;;;;;;5055204;28;20025;-63
2022/04/21 10:41:06;;;;;;;2.78;1.40;;;13.60;49.10;;;;;;5054344;28;20099;-62
2022/04/21 10:43:50;;;;;;;4.88;1.50;;;13.60;49.40;;;;;;5054565;28;20025;-62
2022/04/21 10:46:19;;;;;;;3.47;1.20;;;13.60;49.10;;;;;;5055487;28;20104;-62
2022/04/21 10:48:45;;;;;;;3.15;1.08;;;13.60;48.90;;;;;;5055554;28;20056;-62
2022/04/21 10:51:11;;;;;;;2.08;1.13;;;13.60;48.40;;;;;;5055647;28;20060;-62
2022/04/21 10:57:12;;;;;;;1.35;1.10;;;13.50;48.10;;;;;;5037239;28;20044;-62
2022/04/21 10:59:50;;;;;;;2.70;1.25;;;13.60;48.50;;;;;;5054080;28;20075;-62
2022/04/21 11:02:17;;;;;;;4.95;1.00;;;13.60;49.00;;;;;;5054168;28;20106;-62
2022/04/21 11:04:42;;;;;;;2.50;1.15;;;13.50;48.90;;;;;;5054260;28;20056;-62
2022/04/21 11:07:13;;;;;;;6.28;1.27;;;13.60;48.60;;;;;;5054089;28;20394;-62
2022/04/21 11:09:40;;;;;;;2.72;1.10;;;13.60;49.10;;;;;;5053896;28;20021;-63
2022/04/21 11:12:07;;;;;;;3.45;1.05;;;13.60;49.00;;;;;;5054660;28;20040;-62
2022/04/21 11:14:39;;;;;;;3.55;1.65;;;13.60;49.10;;;;;;5055030;28;20075;-62
2022/04/21 11:17:06;;;;;;;4.40;1.20;;;13.70;49.10;;;;;;5054688;28;20040;-61
2022/04/21 11:19:40;;;;;;;2.75;1.27;;;13.70;49.00;;;;;;5054941;28;20025;-62
2022/04/21 11:22:08;;;;;;;4.10;1.20;;;13.70;49.50;;;;;;5054916;28;20029;-62
2022/04/21 11:24:56;;;;;;;2.72;1.30;;;13.80;49.40;;;;;;5054006;28;20072;-62
2022/04/21 11:27:22;;;;;;;2.40;1.50;;;13.80;49.40;;;;;;5053308;28;20048;-62
2022/04/21 11:29:48;;;;;;;1.80;1.00;;;13.80;49.00;;;;;;5054478;28;20082;-62
2022/04/21 11:32:18;;;;;;;1.98;1.50;;;13.90;49.00;;;;;;5053908;28;20094;-62
2022/04/21 11:35:10;;;;;;;2.63;1.52;;;13.80;48.80;;;;;;5051976;28;20090;-62
2022/04/21 11:37:55;;;;;;;3.10;1.30;;;13.80;48.80;;;;;;5054039;28;20060;-68
2022/04/21 11:40:36;;;;;;;1.55;1.20;;;13.90;48.20;;;;;;5053948;28;20109;-63
2022/04/21 11:43:19;;;;;;;2.67;1.40;;;13.90;49.00;;;;;;5052844;28;20028;-62
2022/04/21 11:45:58;;;;;;;4.57;1.30;;;13.90;49.00;;;;;;5052966;28;20330;-69
2022/04/21 11:48:36;;;;;;;6.55;1.38;;;13.90;48.50;;;;;;5052944;28;20425;-63
2022/04/21 11:51:03;;;;;;;2.60;1.40;;;13.90;48.20;;;;;;5052697;28;20044;-70
2022/04/21 11:53:36;;;;;;;2.85;1.20;;;13.90;48.20;;;;;;5053000;28;20513;-69
2022/04/21 11:56:05;;;;;;;3.83;1.20;;;14.00;48.30;;;;;;5052198;28;20280;-64
2022/04/21 11:58:34;;;;;;;6.15;1.30;;;14.00;47.20;;;;;;5050867;28;20024;-65
2022/04/21 12:06:37;;;;;;;1.50;1.20;;;14.10;50.00;;;;;;5052277;28;20040;-70
2022/04/21 12:09:03;;;;;;;3.72;1.40;;;14.10;50.20;;;;;;5049548;28;20021;-62
2022/04/21 12:11:30;;;;;;;5.10;1.50;;;14.00;49.40;;;;;;5050685;28;20040;-62
2022/04/21 12:13:56;;;;;;;1.83;1.02;;;14.10;49.70;;;;;;5053629;28;20021;-62
2022/04/21 12:16:52;;;;;;;2.67;1.40;;;14.10;49.90;;;;;;5054099;28;20050;-62
2022/04/21 12:19:42;;;;;;;3.85;1.38;;;14.10;49.40;;;;;;5053133;28;20029;-63
2022/04/21 12:22:16;;;;;;;2.80;1.13;;;14.10;49.20;;;;;;5053319;28;20078;-65
2022/04/21 12:24:50;;;;;;;2.42;1.00;;;14.20;48.70;;;;;;5053387;28;20490;-62
2022/04/21 12:27:19;;;;;;;1.98;1.30;;;14.20;49.00;;;;;;5053191;28;20017;-62
2022/04/21 12:30:00;;;;;;;2.20;1.25;;;14.30;49.70;;;;;;5053406;28;20036;-62
2022/04/21 12:32:29;;;;;;;5.47;1.30;;;14.30;49.60;;;;;;5053021;28;20069;-62
2022/04/21 12:34:58;;;;;;;5.50;1.30;;;14.40;49.30;;;;;;5051223;28;20044;-63
2022/04/21 12:37:27;;;;;;;7.68;1.50;;;14.40;49.20;;;;;;5052719;28;20385;-61
2022/04/21 12:39:54;;;;;;;4.72;1.20;;;14.40;49.60;;;;;;5053528;28;20021;-61
2022/04/21 12:42:20;;;;;;;3.97;1.33;;;14.50;49.30;;;;;;5053002;28;20036;-61
2022/04/21 12:44:46;;;;;;;3.20;1.17;;;14.50;49.40;;;;;;5052097;28;20025;-61
2022/04/21 12:47:17;;;;;;;2.95;1.25;;;14.50;48.30;;;;;;5052360;28;20026;-61
2022/04/21 12:50:08;;;;;;;2.45;1.25;;;14.50;47.50;;;;;;5052954;28;20040;-61
2022/04/21 12:52:39;;;;;;;5.43;1.38;;;14.60;48.30;;;;;;5052671;28;20035;-61
2022/04/21 12:55:08;;;;;;;4.35;1.45;;;14.60;48.50;;;;;;5053206;28;20060;-61
2022/04/21 12:57:35;;;;;;;5.38;1.40;;;14.50;48.80;;;;;;5053096;28;20029;-61
2022/04/21 13:00:03;;;;;;;3.30;1.30;;;14.60;49.10;;;;;;5053176;28;20024;-61
2022/04/21 13:02:29;;;;;;;2.80;1.40;;;14.60;49.30;;;;;;5053265;28;20039;-61
2022/04/21 13:04:55;;;;;;;1.80;1.30;;;14.70;49.30;;;;;;5052351;28;20045;-61
2022/04/21 13:07:21;;;;;;;6.45;1.30;;;14.70;49.30;;;;;;5053224;28;20031;-62
2022/04/21 13:09:47;;;;;;;2.22;1.40;;;14.80;49.60;;;;;;5053231;28;20025;-61
2022/04/21 13:12:13;;;;;;;4.43;1.38;;;14.90;50.10;;;;;;5053054;28;20095;-61
2022/04/21 13:14:39;;;;;;;3.80;1.33;;;14.90;49.80;;;;;;5052895;28;20040;-61
2022/04/21 13:17:05;;;;;;;2.80;1.30;;;15.00;49.10;;;;;;5053017;28;20033;-61
2022/04/21 13:19:32;;;;;;;2.00;1.60;;;15.10;49.10;;;;;;5052925;28;20029;-61
2022/04/21 13:21:58;;;;;;;6.28;1.67;;;15.20;49.30;;;;;;5052890;28;20063;-61
2022/04/21 13:24:25;;;;;;;8.20;2.03;;;15.20;49.70;;;;;;5052708;28;20097;-61
2022/04/21 13:26:52;;;;;;;3.70;1.95;;;15.30;49.90;;;;;;5052762;28;20135;-61
2022/04/21 13:29:21;;;;;;;3.72;1.80;;;15.30;50.60;;;;;;5052900;28;20074;-61
2022/04/21 13:34:32;;;;;;;5.43;2.00;;;15.30;49.50;;;;;;5053143;28;20095;-61
2022/04/21 13:36:59;;;;;;;5.28;1.73;;;15.40;49.30;;;;;;5052885;28;20025;-62
2022/04/21 13:39:25;;;;;;;3.67;1.88;;;15.40;49.40;;;;;;5052650;28;20021;-62
2022/04/21 13:41:50;;;;;;;4.38;1.85;;;15.40;49.00;;;;;;5052888;28;20025;-61